Time;durP1;ratioP1;P1;durP2;ratioP2;P2;SDS_P1;SDS_P2;PMS_P1;PMS_P2;Temp;Humidity;BMP_temperature;BMP_pressure;BME280_temperature;BME280_humidity;BME280_pressure;Samples;Min_cycle;Max_cycle;Signal;HPM_P1;HPM_P2
2021/09/28 00:01:58;;;;;;;14.00;9.35;;;537.70;2406.40;;;;;;5032662;28;20025;-78
2021/09/28 00:04:23;;;;;;;15.55;9.80;;;537.70;2406.40;;;;;;5032832;28;20382;-78
2021/09/28 00:06:50;;;;;;;12.98;9.20;;;537.70;2406.40;;;;;;5038500;28;20064;-78
2021/09/28 00:09:16;;;;;;;16.85;9.55;;;537.60;2406.40;;;;;;5052511;28;20403;-78
2021/09/28 00:11:41;;;;;;;12.95;9.13;;;537.60;2406.40;;;;;;5052531;28;20526;-79
2021/09/28 00:14:07;;;;;;;12.45;9.35;;;537.70;2406.40;;;;;;5052343;28;20053;-79
2021/09/28 00:16:33;;;;;;;15.57;10.10;;;537.70;2406.40;;;;;;5051468;28;20025;-78
2021/09/28 00:18:59;;;;;;;17.45;9.95;;;537.70;2406.40;;;;;;5052634;28;20028;-78
2021/09/28 00:21:26;;;;;;;15.32;10.05;;;537.70;2406.40;;;;;;5047949;28;20033;-78
2021/09/28 00:23:52;;;;;;;13.35;9.07;;;537.70;2406.40;;;;;;5036315;28;20103;-78
2021/09/28 00:26:17;;;;;;;13.05;9.30;;;537.80;2406.40;;;;;;5034954;28;20057;-80
2021/09/28 00:28:43;;;;;;;16.00;9.68;;;537.70;2406.40;;;;;;5036045;28;20503;-78
2021/09/28 00:31:09;;;;;;;17.85;13.27;;;537.80;2406.40;;;;;;5034772;28;20026;-79
2021/09/28 00:33:35;;;;;;;18.02;11.90;;;537.60;2406.40;;;;;;5046111;28;20377;-78
2021/09/28 00:36:01;;;;;;;17.00;10.15;;;512.90;2380.80;;;;;;5053838;28;20100;-79
2021/09/28 00:38:26;;;;;;;15.50;10.75;;;512.90;2380.80;;;;;;5046980;28;20025;-78
2021/09/28 00:40:52;;;;;;;15.23;9.30;;;512.90;2380.80;;;;;;5055743;28;20060;-78
2021/09/28 00:43:18;;;;;;;21.30;10.60;;;512.80;2380.80;;;;;;5054195;28;20028;-79
2021/09/28 00:45:44;;;;;;;17.60;9.48;;;512.70;2380.80;;;;;;5054270;28;20037;-78
2021/09/28 00:48:10;;;;;;;14.13;9.40;;;512.70;2380.80;;;;;;5054772;28;20021;-77
2021/09/28 00:50:36;;;;;;;15.30;10.32;;;512.70;2380.80;;;;;;5035955;28;20442;-77
2021/09/28 00:53:04;;;;;;;15.80;9.13;;;512.50;2380.80;;;;;;5041508;28;20022;-78
2021/09/28 00:55:30;;;;;;;13.05;8.82;;;512.50;2380.80;;;;;;5047494;28;20034;-77
2021/09/28 00:57:57;;;;;;;13.57;8.13;;;512.50;2380.80;;;;;;5035398;28;20021;-77
2021/09/28 01:00:24;;;;;;;14.70;7.72;;;512.40;2380.80;;;;;;5034207;28;20037;-77
2021/09/28 01:02:53;;;;;;;14.40;8.13;;;512.40;2380.80;;;;;;5035740;28;20025;-78
2021/09/28 01:05:19;;;;;;;14.23;8.85;;;512.30;2380.80;;;;;;5035472;28;20478;-78
2021/09/28 01:07:44;;;;;;;12.48;7.90;;;512.20;2380.80;;;;;;5035609;28;20025;-78
2021/09/28 01:10:10;;;;;;;13.85;7.97;;;512.20;2380.80;;;;;;5035371;28;20025;-78
2021/09/28 01:12:36;;;;;;;17.23;8.00;;;512.20;2380.80;;;;;;5035246;28;20057;-79
2021/09/28 01:15:03;;;;;;;13.48;8.48;;;512.20;2380.80;;;;;;5034836;28;20059;-78
2021/09/28 01:17:28;;;;;;;13.68;8.18;;;512.20;2380.80;;;;;;5035383;28;20071;-78
2021/09/28 01:19:54;;;;;;;12.13;7.93;;;512.20;2380.80;;;;;;5035223;28;20029;-78
2021/09/28 01:22:20;;;;;;;14.63;8.68;;;512.20;2380.80;;;;;;5033919;28;20032;-78
2021/09/28 01:24:47;;;;;;;12.23;7.93;;;512.20;2380.80;;;;;;5034873;28;20550;-78
2021/09/28 01:27:14;;;;;;;13.48;8.30;;;512.20;2380.80;;;;;;5034817;28;20056;-78
2021/09/28 01:29:40;;;;;;;13.82;8.10;;;512.20;2380.80;;;;;;5033664;28;20052;-78
2021/09/28 01:32:06;;;;;;;15.18;7.75;;;512.20;2380.80;;;;;;5034941;28;20026;-78
2021/09/28 01:34:32;;;;;;;17.38;9.60;;;512.20;2380.80;;;;;;5035072;28;20052;-79
2021/09/28 01:36:58;;;;;;;14.23;8.32;;;512.30;2380.80;;;;;;5034921;28;20465;-79
2021/09/28 01:39:24;;;;;;;15.05;8.85;;;512.30;2380.80;;;;;;5034731;28;20525;-79
2021/09/28 01:41:50;;;;;;;16.45;9.10;;;512.30;2380.80;;;;;;5034832;28;20420;-78
2021/09/28 01:44:17;;;;;;;13.05;7.75;;;512.30;2380.80;;;;;;5033104;28;20045;-78
2021/09/28 01:46:45;;;;;;;14.70;8.65;;;512.40;2380.80;;;;;;5034751;28;20036;-78
2021/09/28 01:49:13;;;;;;;11.32;8.10;;;512.40;2380.80;;;;;;5033580;28;20087;-77
2021/09/28 01:51:39;;;;;;;12.93;8.35;;;512.50;2380.80;;;;;;5033436;28;20029;-80
2021/09/28 01:54:05;;;;;;;19.35;9.23;;;512.60;2380.80;;;;;;5034017;28;20029;-79
2021/09/28 01:56:31;;;;;;;12.45;8.80;;;512.50;2380.80;;;;;;5033740;28;20030;-83
2021/09/28 01:58:59;;;;;;;12.95;8.88;;;512.60;2380.80;;;;;;5034842;28;20548;-83
2021/09/28 02:01:26;;;;;;;13.52;8.30;;;512.60;2380.80;;;;;;5033704;28;20026;-84
2021/09/28 02:03:52;;;;;;;14.98;9.02;;;512.70;2380.80;;;;;;5034819;28;20550;-77
2021/09/28 02:06:20;;;;;;;15.52;9.32;;;512.70;2380.80;;;;;;5034227;28;20033;-76
2021/09/28 02:08:47;;;;;;;14.30;8.48;;;512.80;2380.80;;;;;;5034266;28;20013;-77
2021/09/28 02:11:12;;;;;;;13.07;8.68;;;512.80;2380.80;;;;;;5033941;28;20030;-78
2021/09/28 02:13:39;;;;;;;19.42;10.18;;;512.90;2380.80;;;;;;5032497;28;20133;-78
2021/09/28 02:16:05;;;;;;;14.68;8.30;;;512.80;2380.80;;;;;;5034179;28;20029;-78
2021/09/28 02:18:31;;;;;;;13.65;9.05;;;512.90;2380.80;;;;;;5034202;28;20108;-78
2021/09/28 02:20:57;;;;;;;13.25;8.80;;;512.90;2380.80;;;;;;5034628;28;20029;-83
2021/09/28 02:23:23;;;;;;;16.20;8.07;;;512.90;2380.80;;;;;;5035174;28;20041;-83
2021/09/28 02:25:49;;;;;;;13.85;8.65;;;512.90;2380.80;;;;;;5034273;28;20512;-84
2021/09/28 02:28:14;;;;;;;14.45;9.57;;;512.80;2380.80;;;;;;5034210;28;20474;-84
2021/09/28 02:30:40;;;;;;;16.08;7.95;;;512.80;2380.80;;;;;;5034476;28;20028;-84
2021/09/28 02:33:06;;;;;;;14.18;8.80;;;512.90;2380.80;;;;;;5033635;28;20029;-82
2021/09/28 02:35:32;;;;;;;18.98;9.18;;;512.90;2380.80;;;;;;5034057;28;20022;-78
2021/09/28 02:37:59;;;;;;;12.48;8.60;;;512.80;2380.80;;;;;;5034039;28;20496;-78
2021/09/28 02:40:26;;;;;;;14.48;8.80;;;537.60;2406.40;;;;;;5032351;28;20355;-78
2021/09/28 02:42:53;;;;;;;17.23;9.25;;;537.60;2406.40;;;;;;5032302;28;20026;-78
2021/09/28 02:45:18;;;;;;;14.15;8.40;;;512.90;2380.80;;;;;;5031735;28;20433;-78
2021/09/28 02:47:44;;;;;;;13.07;8.90;;;512.90;2380.80;;;;;;5033887;28;20017;-78
2021/09/28 02:50:11;;;;;;;13.45;8.80;;;512.90;2380.80;;;;;;5032812;28;20072;-84
2021/09/28 02:52:37;;;;;;;15.18;8.23;;;512.80;2380.80;;;;;;5032901;28;20056;-83
2021/09/28 02:55:04;;;;;;;15.57;8.75;;;512.80;2380.80;;;;;;5034030;28;20053;-84
2021/09/28 02:57:30;;;;;;;18.27;9.77;;;512.80;2380.80;;;;;;5033010;28;20031;-84
2021/09/28 02:59:55;;;;;;;13.20;8.63;;;512.80;2380.80;;;;;;5032661;28;20112;-81
2021/09/28 03:02:21;;;;;;;14.10;8.68;;;512.90;2380.80;;;;;;5032907;28;20362;-84
2021/09/28 03:04:47;;;;;;;13.68;8.57;;;512.90;2380.80;;;;;;5033946;28;20022;-78
2021/09/28 03:07:12;;;;;;;13.65;9.02;;;512.90;2380.80;;;;;;5032212;28;20036;-77
2021/09/28 03:09:38;;;;;;;16.25;10.70;;;512.90;2380.80;;;;;;5033690;28;20022;-79
2021/09/28 03:12:04;;;;;;;16.42;9.43;;;512.90;2380.80;;;;;;5033148;28;20021;-78
2021/09/28 03:14:30;;;;;;;13.50;9.63;;;512.90;2380.80;;;;;;5033153;28;20049;-78
2021/09/28 03:16:56;;;;;;;13.93;8.98;;;537.60;2406.40;;;;;;5033331;28;20032;-78
2021/09/28 03:19:24;;;;;;;16.85;9.60;;;512.90;2380.80;;;;;;5033538;28;20032;-84
2021/09/28 03:21:50;;;;;;;16.73;8.57;;;537.60;2406.40;;;;;;5033314;28;20101;-79
2021/09/28 03:24:17;;;;;;;14.65;9.82;;;537.60;2406.40;;;;;;5033420;28;20026;-79
2021/09/28 03:26:43;;;;;;;18.20;9.90;;;537.60;2406.40;;;;;;5033260;28;20025;-78
2021/09/28 03:29:08;;;;;;;12.18;7.93;;;537.60;2406.40;;;;;;5032978;28;20030;-78
2021/09/28 03:31:34;;;;;;;14.95;9.70;;;537.60;2406.40;;;;;;5031937;28;20439;-78
2021/09/28 03:34:00;;;;;;;12.52;8.57;;;537.60;2406.40;;;;;;5032172;28;20608;-78
2021/09/28 03:36:26;;;;;;;12.80;8.48;;;537.60;2406.40;;;;;;5032508;28;20028;-82
2021/09/28 03:38:51;;;;;;;12.60;8.70;;;537.60;2406.40;;;;;;5033961;28;20024;-84
2021/09/28 03:41:17;;;;;;;14.00;10.07;;;537.60;2406.40;;;;;;5033455;28;20100;-83
2021/09/28 03:43:43;;;;;;;15.07;9.32;;;512.90;2380.80;;;;;;5033669;28;20504;-84
2021/09/28 03:46:09;;;;;;;13.68;9.23;;;512.90;2380.80;;;;;;5033504;28;20041;-83
2021/09/28 03:48:35;;;;;;;15.35;9.77;;;512.90;2380.80;;;;;;5032865;28;20026;-83
2021/09/28 03:51:00;;;;;;;11.60;7.78;;;512.90;2380.80;;;;;;5032051;28;20032;-79
2021/09/28 03:53:26;;;;;;;12.95;8.23;;;512.90;2380.80;;;;;;5033501;28;20030;-78
2021/09/28 03:55:52;;;;;;;14.07;8.35;;;512.90;2380.80;;;;;;5031656;28;20109;-78
2021/09/28 03:58:18;;;;;;;15.27;8.68;;;512.90;2380.80;;;;;;5035175;28;20545;-78
2021/09/28 04:00:44;;;;;;;15.93;9.60;;;512.90;2380.80;;;;;;5036704;28;20443;-78
2021/09/28 04:03:10;;;;;;;13.13;8.63;;;512.90;2380.80;;;;;;5037006;28;20072;-77
2021/09/28 04:05:37;;;;;;;23.42;9.90;;;512.90;2380.80;;;;;;5035429;28;20037;-78
2021/09/28 04:08:04;;;;;;;15.38;9.35;;;512.90;2380.80;;;;;;5035650;28;20026;-79
2021/09/28 04:10:30;;;;;;;14.65;9.27;;;512.90;2380.80;;;;;;5037105;28;20151;-83
2021/09/28 04:12:56;;;;;;;15.25;9.85;;;512.70;2380.80;;;;;;5035943;28;20021;-77
2021/09/28 04:15:25;;;;;;;18.58;10.25;;;512.60;2380.80;;;;;;5036675;28;20060;-84
2021/09/28 04:17:52;;;;;;;13.57;9.63;;;512.70;2380.80;;;;;;5037332;28;20108;-84
2021/09/28 04:20:18;;;;;;;15.02;9.15;;;512.70;2380.80;;;;;;5035805;28;20033;-82
2021/09/28 04:22:45;;;;;;;14.23;9.07;;;512.60;2380.80;;;;;;5037349;28;20021;-84
2021/09/28 04:25:13;;;;;;;14.82;8.82;;;512.60;2380.80;;;;;;5035696;28;20045;-82
2021/09/28 04:27:39;;;;;;;13.45;9.35;;;512.60;2380.80;;;;;;5036064;28;20382;-82
2021/09/28 04:30:06;;;;;;;14.55;8.80;;;512.60;2380.80;;;;;;5035376;28;20071;-82
2021/09/28 04:32:32;;;;;;;19.60;9.48;;;512.60;2380.80;;;;;;5036866;28;20018;-83
2021/09/28 04:34:58;;;;;;;13.77;8.85;;;512.60;2380.80;;;;;;5036763;28;20033;-85
2021/09/28 04:37:24;;;;;;;13.85;9.55;;;512.60;2380.80;;;;;;5036827;28;20026;-85
2021/09/28 04:39:50;;;;;;;14.73;8.85;;;512.60;2380.80;;;;;;5043031;28;20090;-78
2021/09/28 04:42:16;;;;;;;15.23;9.02;;;512.70;2380.80;;;;;;5044037;28;20056;-79
2021/09/28 04:44:43;;;;;;;17.08;9.90;;;512.70;2380.80;;;;;;5047841;28;20036;-79
2021/09/28 04:47:09;;;;;;;20.20;10.43;;;512.80;2380.80;;;;;;5055866;28;20111;-79
2021/09/28 04:49:35;;;;;;;15.80;9.27;;;512.80;2380.80;;;;;;5054692;28;20338;-80
2021/09/28 04:52:01;;;;;;;15.10;9.77;;;512.80;2380.80;;;;;;5055898;28;20039;-79
2021/09/28 04:54:27;;;;;;;16.70;11.13;;;512.90;2380.80;;;;;;5056081;28;20021;-79
2021/09/28 04:56:52;;;;;;;13.57;10.05;;;512.90;2380.80;;;;;;5056037;28;20048;-84
2021/09/28 04:59:18;;;;;;;15.07;9.15;;;512.90;2380.80;;;;;;5056213;28;20028;-84
2021/09/28 05:01:44;;;;;;;18.40;9.75;;;512.90;2380.80;;;;;;5055943;28;20024;-85
2021/09/28 05:04:10;;;;;;;12.18;8.55;;;512.90;2380.80;;;;;;5055248;28;20021;-85
2021/09/28 05:06:35;;;;;;;20.42;9.95;;;512.90;2380.80;;;;;;5056129;28;20033;-83
2021/09/28 05:09:01;;;;;;;17.65;10.23;;;512.90;2380.80;;;;;;5055516;28;20052;-82
2021/09/28 05:11:27;;;;;;;20.08;10.55;;;512.90;2380.80;;;;;;5054321;28;20040;-83
2021/09/28 05:13:52;;;;;;;19.38;11.10;;;512.90;2380.80;;;;;;5054262;28;20056;-84
2021/09/28 05:16:20;;;;;;;16.75;10.20;;;512.60;2380.80;;;;;;5054893;28;20040;-85
2021/09/28 05:18:46;;;;;;;22.15;10.48;;;512.50;2380.80;;;;;;5054483;28;20476;-82
2021/09/28 05:21:12;;;;;;;17.48;11.15;;;512.30;2380.80;;;;;;5054263;28;20427;-83
2021/09/28 05:23:38;;;;;;;22.40;10.68;;;512.40;2380.80;;;;;;5054695;28;20070;-83
2021/09/28 05:26:04;;;;;;;17.90;10.40;;;512.40;2380.80;;;;;;5045431;28;20099;-82
2021/09/28 05:28:30;;;;;;;17.05;10.63;;;512.40;2380.80;;;;;;5047279;28;20030;-83
2021/09/28 05:30:58;;;;;;;16.90;10.13;;;512.40;2380.80;;;;;;5050004;28;20053;-83
2021/09/28 05:33:23;;;;;;;14.65;9.70;;;512.50;2380.80;;;;;;5053972;28;20409;-83
2021/09/28 05:35:49;;;;;;;17.13;10.27;;;512.50;2380.80;;;;;;5054086;28;20021;-86
2021/09/28 05:38:15;;;;;;;17.15;10.07;;;512.40;2380.80;;;;;;5054334;28;20025;-84
2021/09/28 05:40:41;;;;;;;18.73;11.07;;;512.30;2380.80;;;;;;5054213;28;20021;-84
2021/09/28 05:43:06;;;;;;;17.50;11.40;;;512.30;2380.80;;;;;;5053594;28;20119;-83
2021/09/28 05:45:32;;;;;;;21.45;11.57;;;512.20;2380.80;;;;;;5053601;28;20071;-82
2021/09/28 05:47:58;;;;;;;19.48;10.35;;;512.30;2380.80;;;;;;5053908;28;20021;-82
2021/09/28 05:50:23;;;;;;;22.58;11.77;;;512.20;2380.80;;;;;;5053969;28;20451;-82
2021/09/28 05:52:51;;;;;;;17.20;10.93;;;512.20;2380.80;;;;;;5054250;28;20021;-83
2021/09/28 05:55:17;;;;;;;19.08;9.93;;;512.20;2380.80;;;;;;5053980;28;20075;-84
2021/09/28 05:57:43;;;;;;;17.92;11.02;;;512.20;2380.80;;;;;;5053711;28;20053;-84
2021/09/28 06:00:14;;;;;;;21.80;12.20;;;512.20;2380.80;;;;;;5054023;28;20021;-81
2021/09/28 06:02:40;;;;;;;17.65;11.75;;;512.20;2380.80;;;;;;5054079;28;20057;-80
2021/09/28 06:05:07;;;;;;;22.42;13.23;;;512.20;2380.80;;;;;;5051791;28;20127;-85
2021/09/28 06:07:33;;;;;;;19.65;11.45;;;512.20;2380.80;;;;;;5045639;28;20032;-80
2021/09/28 06:09:59;;;;;;;18.35;11.30;;;512.20;2380.80;;;;;;5033312;28;20428;-81
2021/09/28 06:12:24;;;;;;;20.48;12.85;;;512.20;2380.80;;;;;;5051114;28;20070;-85
2021/09/28 06:14:50;;;;;;;17.35;12.40;;;512.30;2380.80;;;;;;5053944;28;20056;-80
2021/09/28 06:17:16;;;;;;;21.15;14.57;;;512.30;2380.80;;;;;;5053717;28;20461;-85
2021/09/28 06:19:42;;;;;;;18.27;12.43;;;512.30;2380.80;;;;;;5054505;28;20032;-85
2021/09/28 06:22:08;;;;;;;21.73;12.68;;;512.40;2380.80;;;;;;5053716;28;20025;-84
2021/09/28 06:24:35;;;;;;;20.45;13.27;;;512.40;2380.80;;;;;;5037043;28;20037;-85
2021/09/28 06:27:05;;;;;;;21.25;14.65;;;512.50;2380.80;;;;;;5053768;28;20078;-84
2021/09/28 06:29:32;;;;;;;22.42;13.38;;;512.50;2380.80;;;;;;5053640;28;20029;-81
2021/09/28 06:31:58;;;;;;;24.10;13.82;;;512.50;2380.80;;;;;;5053465;28;20048;-81
2021/09/28 06:34:25;;;;;;;23.02;13.82;;;512.50;2380.80;;;;;;5054311;28;20123;-81
2021/09/28 06:36:51;;;;;;;23.05;14.48;;;512.60;2380.80;;;;;;5052931;28;20025;-83
2021/09/28 06:39:16;;;;;;;19.80;13.65;;;512.60;2380.80;;;;;;5052837;28;20523;-82
2021/09/28 06:41:44;;;;;;;24.77;14.13;;;512.70;2380.80;;;;;;5054398;28;20029;-83
2021/09/28 06:44:09;;;;;;;20.17;14.02;;;512.80;2380.80;;;;;;5053773;28;20029;-83
2021/09/28 06:46:35;;;;;;;22.15;13.63;;;512.90;2380.80;;;;;;5053210;28;20112;-81
2021/09/28 06:49:02;;;;;;;21.27;14.85;;;512.90;2380.80;;;;;;5054366;28;20021;-84
2021/09/28 06:51:28;;;;;;;25.23;14.95;;;537.60;2406.40;;;;;;5052562;28;20540;-83
2021/09/28 06:53:54;;;;;;;22.33;14.95;;;537.70;2406.40;;;;;;5053258;28;20117;-84
2021/09/28 06:56:21;;;;;;;18.98;13.73;;;537.70;2406.40;;;;;;5053912;28;20091;-81
2021/09/28 06:58:47;;;;;;;23.13;15.20;;;537.80;2406.40;;;;;;5048962;28;20515;-80
2021/09/28 07:01:13;;;;;;;22.10;15.82;;;537.90;2406.40;;;;;;5040726;28;20300;-82
2021/09/28 07:03:40;;;;;;;23.73;15.68;;;537.90;2406.40;;;;;;5040067;28;20047;-82
2021/09/28 07:06:06;;;;;;;22.77;15.05;;;538.00;2406.40;;;;;;5033687;28;20095;-84
2021/09/28 07:08:32;;;;;;;18.85;14.23;;;538.10;2406.40;;;;;;5034008;28;20075;-82
2021/09/28 07:10:58;;;;;;;25.20;15.90;;;538.10;2406.40;;;;;;5015400;28;20041;-82
2021/09/28 07:13:23;;;;;;;24.67;17.10;;;538.10;2406.40;;;;;;5018693;28;20055;-79
2021/09/28 07:15:49;;;;;;;22.35;15.57;;;538.20;2406.40;;;;;;5033824;28;20037;-84
2021/09/28 07:18:16;;;;;;;26.42;16.77;;;538.20;2406.40;;;;;;5032699;28;20388;-80
2021/09/28 07:20:42;;;;;;;18.50;13.20;;;538.20;2406.40;;;;;;5032138;28;20028;-79
2021/09/28 07:23:08;;;;;;;19.50;14.32;;;538.20;2406.40;;;;;;5033773;28;20033;-77
2021/09/28 07:25:34;;;;;;;16.40;11.85;;;538.30;2406.40;;;;;;5037655;28;20037;-76
2021/09/28 07:28:00;;;;;;;24.25;13.35;;;538.20;2406.40;;;;;;5039407;28;20041;-77
2021/09/28 07:30:28;;;;;;;17.75;11.48;;;538.30;2406.40;;;;;;5043638;28;20017;-78
2021/09/28 07:32:54;;;;;;;20.92;11.23;;;538.30;2406.40;;;;;;5046225;28;21323;-78
2021/09/28 07:35:20;;;;;;;17.83;12.30;;;538.30;2406.40;;;;;;5046285;28;20032;-79
2021/09/28 07:37:46;;;;;;;18.98;11.45;;;538.40;2406.40;;;;;;5042976;28;20384;-78
2021/09/28 07:40:13;;;;;;;18.23;11.57;;;538.50;2406.40;;;;;;5053375;28;20033;-79
2021/09/28 07:42:39;;;;;;;18.73;13.00;;;538.50;2406.40;;;;;;5057016;28;20439;-81
2021/09/28 07:45:06;;;;;;;18.20;12.68;;;538.50;2406.40;;;;;;5043362;28;20421;-79
2021/09/28 07:47:32;;;;;;;19.33;12.48;;;538.40;2406.40;;;;;;5037887;28;20060;-77
2021/09/28 07:49:58;;;;;;;18.27;11.40;;;538.50;2406.40;;;;;;5036788;28;20477;-78
2021/09/28 07:52:24;;;;;;;17.52;11.32;;;538.40;2406.40;;;;;;5036936;28;20062;-76
2021/09/28 07:54:50;;;;;;;16.15;11.45;;;538.30;2406.40;;;;;;5035749;28;20060;-78
2021/09/28 07:57:16;;;;;;;15.35;11.07;;;538.40;2406.40;;;;;;5035436;28;20060;-77
2021/09/28 07:59:42;;;;;;;14.68;10.20;;;538.30;2406.40;;;;;;5036361;28;20033;-82
2021/09/28 08:02:08;;;;;;;14.40;10.40;;;538.40;2406.40;;;;;;5036748;28;20029;-79
2021/09/28 08:04:35;;;;;;;13.10;9.68;;;538.40;2406.40;;;;;;5035320;28;20066;-78
2021/09/28 08:07:01;;;;;;;15.38;10.20;;;538.30;2406.40;;;;;;5035231;28;20037;-80
2021/09/28 08:09:27;;;;;;;14.68;10.80;;;538.50;2406.40;;;;;;5036809;28;20022;-79
2021/09/28 08:11:55;;;;;;;17.00;10.73;;;538.50;2406.40;;;;;;5035248;28;20053;-78
2021/09/28 08:14:20;;;;;;;17.52;10.32;;;538.50;2406.40;;;;;;5046922;28;20129;-82
2021/09/28 08:16:46;;;;;;;14.07;10.10;;;563.20;2432.00;;;;;;5056550;28;20110;-81
2021/09/28 08:19:12;;;;;;;16.52;10.65;;;563.20;2432.00;;;;;;5056873;28;20380;-78
2021/09/28 08:21:38;;;;;;;14.15;10.15;;;563.30;2432.00;;;;;;5056953;28;20024;-86
2021/09/28 08:24:04;;;;;;;16.45;10.52;;;563.30;2432.00;;;;;;5055890;28;20033;-86
2021/09/28 08:29:09;;;;;;;16.92;10.63;;;563.40;2432.00;;;;;;5055947;28;20028;-83
2021/09/28 08:31:43;;;;;;;12.93;9.70;;;563.50;2432.00;;;;;;5056130;28;20029;-80
2021/09/28 08:34:11;;;;;;;15.43;10.68;;;563.50;2432.00;;;;;;5055070;28;20538;-82
2021/09/28 08:36:37;;;;;;;15.98;10.93;;;563.50;2432.00;;;;;;5056481;28;20021;-80
2021/09/28 08:39:04;;;;;;;14.95;10.23;;;563.50;2432.00;;;;;;5058234;28;20022;-82
2021/09/28 08:41:30;;;;;;;16.25;11.02;;;563.60;2432.00;;;;;;5059293;28;20097;-83
2021/09/28 08:43:56;;;;;;;12.57;9.25;;;563.50;2432.00;;;;;;5060028;28;20025;-79
2021/09/28 08:46:22;;;;;;;16.40;9.70;;;563.50;2432.00;;;;;;5059571;28;20049;-79
2021/09/28 08:48:48;;;;;;;14.48;10.00;;;563.50;2432.00;;;;;;5056391;28;20026;-82
2021/09/28 08:51:14;;;;;;;15.00;11.55;;;563.60;2432.00;;;;;;5060976;28;20034;-83
2021/09/28 08:53:41;;;;;;;13.68;10.32;;;563.60;2432.00;;;;;;5056175;28;20005;-84
2021/09/28 08:56:12;;;;;;;13.10;10.18;;;563.60;2432.00;;;;;;5058195;28;20018;-78
2021/09/28 08:58:57;;;;;;;14.57;9.75;;;563.70;2432.00;;;;;;5043798;28;20021;-75
2021/09/28 09:01:24;;;;;;;14.82;10.40;;;563.80;2432.00;;;;;;5014915;28;20068;-80
2021/09/28 09:03:50;;;;;;;14.60;11.35;;;563.80;2432.00;;;;;;5015759;28;20546;-85
2021/09/28 09:06:17;;;;;;;17.63;11.13;;;563.80;2432.00;;;;;;5015566;28;20080;-79
2021/09/28 09:08:48;;;;;;;15.00;9.57;;;563.90;2432.00;;;;;;5015558;28;20381;-82
2021/09/28 09:11:16;;;;;;;15.20;10.65;;;563.90;2432.00;;;;;;5015529;28;20029;-79
2021/09/28 09:13:50;;;;;;;17.00;11.43;;;563.90;2432.00;;;;;;5013877;28;20026;-81
2021/09/28 09:16:18;;;;;;;16.92;11.60;;;563.90;2432.00;;;;;;5014408;28;20394;-81
2021/09/28 09:18:51;;;;;;;24.30;14.95;;;564.00;2432.00;;;;;;5014312;28;20064;-79
2021/09/28 09:21:16;;;;;;;25.73;15.77;;;563.90;2432.00;;;;;;5015382;28;20033;-78
2021/09/28 09:23:45;;;;;;;22.67;14.80;;;563.80;2432.00;;;;;;5036997;28;20033;-79
2021/09/28 09:26:12;;;;;;;25.30;16.98;;;563.80;2432.00;;;;;;5043072;28;20038;-81
2021/09/28 09:28:41;;;;;;;19.85;13.23;;;563.80;2432.00;;;;;;5040271;28;20144;-80
2021/09/28 09:31:14;;;;;;;29.90;16.35;;;563.80;2432.00;;;;;;5035120;28;20029;-78
2021/09/28 09:33:42;;;;;;;22.40;13.93;;;563.80;2432.00;;;;;;5038981;28;20025;-79
2021/09/28 09:36:09;;;;;;;30.33;17.17;;;563.80;2432.00;;;;;;5053277;28;20072;-79
2021/09/28 09:38:49;;;;;;;29.50;17.25;;;563.90;2432.00;;;;;;5053364;28;20027;-79
2021/09/28 09:41:16;;;;;;;32.28;16.52;;;563.90;2432.00;;;;;;5054709;28;20017;-76
2021/09/28 09:43:43;;;;;;;20.50;14.52;;;563.90;2432.00;;;;;;5052896;28;20025;-80
2021/09/28 09:46:17;;;;;;;22.67;12.48;;;563.80;2432.00;;;;;;5053743;28;20055;-93
2021/09/28 09:48:44;;;;;;;19.73;13.00;;;563.80;2432.00;;;;;;5055449;28;20564;-88
2021/09/28 09:51:15;;;;;;;28.55;13.90;;;563.90;2432.00;;;;;;5056133;28;20016;-80
2021/09/28 09:53:58;;;;;;;38.30;13.15;;;563.80;2432.00;;;;;;5036720;28;20031;-85
2021/09/28 09:56:50;;;;;;;30.75;12.93;;;563.80;2432.00;;;;;;5054871;28;20473;-84
2021/09/28 09:59:18;;;;;;;60.50;17.42;;;563.80;2432.00;;;;;;5054697;28;20104;-82
2021/09/28 10:01:45;;;;;;;21.10;12.82;;;563.90;2432.00;;;;;;5054637;28;20146;-79
2021/09/28 10:04:13;;;;;;;21.52;12.52;;;563.90;2432.00;;;;;;5054227;28;20465;-78
2021/09/28 10:06:39;;;;;;;20.13;13.00;;;563.90;2432.00;;;;;;5054341;28;20033;-79
2021/09/28 10:09:10;;;;;;;23.83;12.77;;;563.90;2432.00;;;;;;5054801;28;20074;-79
2021/09/28 10:11:37;;;;;;;16.48;12.95;;;563.90;2432.00;;;;;;5054167;28;20056;-78
2021/09/28 10:14:04;;;;;;;17.75;13.07;;;563.90;2432.00;;;;;;5053825;28;20419;-79
2021/09/28 10:16:34;;;;;;;18.60;12.93;;;563.80;2432.00;;;;;;5054019;28;20103;-81
2021/09/28 10:19:02;;;;;;;23.08;14.50;;;563.90;2432.00;;;;;;5053071;28;20025;-79
2021/09/28 10:21:42;;;;;;;21.52;14.50;;;563.90;2432.00;;;;;;5049258;28;20065;-79
2021/09/28 10:24:17;;;;;;;19.38;13.77;;;564.00;2432.00;;;;;;5041279;28;20025;-81
2021/09/28 10:27:06;;;;;;;28.98;14.57;;;564.00;2432.00;;;;;;5037343;28;20049;-80
2021/09/28 10:29:42;;;;;;;23.17;13.10;;;564.00;2432.00;;;;;;5033861;28;20025;-81
2021/09/28 10:32:27;;;;;;;21.27;13.38;;;564.00;2432.00;;;;;;5035058;28;20025;-78
2021/09/28 10:35:05;;;;;;;21.27;12.85;;;564.00;2432.00;;;;;;5033943;28;20053;-77
2021/09/28 10:37:43;;;;;;;20.52;13.43;;;564.00;2432.00;;;;;;5034440;28;20017;-82
2021/09/28 10:40:32;;;;;;;21.10;13.57;;;564.00;2432.00;;;;;;5033326;28;20029;-80
2021/09/28 10:43:23;;;;;;;15.98;12.07;;;564.00;2432.00;;;;;;5033481;28;20125;-81
2021/09/28 10:45:49;;;;;;;16.10;11.38;;;563.90;2432.00;;;;;;5034017;28;20050;-81
2021/09/28 10:48:24;;;;;;;15.73;11.93;;;563.80;2432.00;;;;;;5034020;28;20109;-81
2021/09/28 10:51:14;;;;;;;19.42;13.05;;;563.70;2432.00;;;;;;5033846;28;20021;-81
2021/09/28 10:53:47;;;;;;;16.40;12.20;;;563.70;2432.00;;;;;;5032592;28;20473;-77
2021/09/28 10:56:16;;;;;;;18.30;11.70;;;563.60;2432.00;;;;;;5034020;28;20481;-80
2021/09/28 10:58:52;;;;;;;18.20;12.38;;;563.60;2432.00;;;;;;5033453;28;20033;-77
2021/09/28 11:01:18;;;;;;;19.17;13.43;;;563.60;2432.00;;;;;;5034715;28;20053;-81
2021/09/28 11:03:51;;;;;;;32.35;15.13;;;563.60;2432.00;;;;;;5042897;28;20048;-81
2021/09/28 11:06:17;;;;;;;22.60;11.98;;;563.60;2432.00;;;;;;5039953;28;20030;-82
2021/09/28 11:08:43;;;;;;;18.83;11.30;;;563.80;2432.00;;;;;;5041807;28;20037;-79
2021/09/28 11:11:12;;;;;;;23.77;13.63;;;563.80;2432.00;;;;;;5047771;28;20036;-78
2021/09/28 11:13:41;;;;;;;23.63;12.15;;;563.90;2432.00;;;;;;5044069;28;20033;-78
2021/09/28 11:16:09;;;;;;;18.73;12.02;;;563.90;2432.00;;;;;;5039859;28;20385;-80
2021/09/28 11:18:57;;;;;;;21.50;11.73;;;564.00;2432.00;;;;;;5051868;28;20050;-79
2021/09/28 11:21:24;;;;;;;19.35;11.55;;;564.00;2432.00;;;;;;5037533;28;20060;-78
2021/09/28 11:23:54;;;;;;;16.50;12.07;;;564.00;2406.40;;;;;;5039632;28;20390;-79
2021/09/28 11:26:33;;;;;;;17.88;12.45;;;564.00;2432.00;;;;;;5037354;28;20544;-75
2021/09/28 11:29:00;;;;;;;23.67;11.77;;;564.00;2432.00;;;;;;5020293;28;20029;-76
2021/09/28 11:31:38;;;;;;;16.17;11.18;;;564.10;2432.00;;;;;;5042335;28;20049;-80
2021/09/28 11:34:04;;;;;;;20.55;13.02;;;588.80;2355.20;;;;;;5043181;28;20052;-77
2021/09/28 11:36:38;;;;;;;19.35;12.13;;;564.10;2355.20;;;;;;5043140;28;20052;-79
2021/09/28 11:39:07;;;;;;;16.10;11.40;;;564.10;2304.00;;;;;;5040325;28;20044;-85
2021/09/28 11:41:36;;;;;;;13.93;9.63;;;588.80;2355.20;;;;;;5041969;28;20021;-82
2021/09/28 11:44:04;;;;;;;16.98;11.75;;;588.80;2278.40;;;;;;5039274;28;20028;-83
2021/09/28 11:46:31;;;;;;;18.92;11.50;;;589.00;2252.80;;;;;;5043405;28;20052;-82
2021/09/28 11:49:06;;;;;;;16.05;11.73;;;589.10;2304.00;;;;;;5053905;28;20476;-81
2021/09/28 11:51:33;;;;;;;17.92;11.55;;;589.20;2304.00;;;;;;5053925;28;20468;-83
2021/09/28 11:54:05;;;;;;;14.93;11.40;;;589.40;2329.60;;;;;;5053942;28;20025;-87
2021/09/28 11:56:34;;;;;;;14.27;11.43;;;589.60;2278.40;;;;;;5053815;28;20033;-86
2021/09/28 11:59:00;;;;;;;15.48;11.05;;;614.40;2304.00;;;;;;5054343;28;20104;-89
2021/09/28 12:01:27;;;;;;;19.50;14.23;;;614.50;2252.80;;;;;;5043513;28;20381;-89
2021/09/28 12:04:20;;;;;;;16.83;12.70;;;589.70;2329.60;;;;;;5036400;28;20082;-86
2021/09/28 12:07:09;;;;;;;;;;;614.60;2329.60;;;;;;5044755;28;20135;-89
2021/09/28 12:09:34;;;;;;;19.70;13.38;;;614.70;2329.60;;;;;;5020851;28;19906;-92